createdAt,value
2018-05-27T00:01:57.472Z,99.90
2018-05-27T00:04:24.056Z,99.90
2018-05-27T00:06:50.607Z,99.90
2018-05-27T00:09:17.114Z,99.90
2018-05-27T00:11:43.624Z,99.90
2018-05-27T00:14:10.839Z,99.90
2018-05-27T00:16:37.406Z,99.90
2018-05-27T00:19:03.968Z,99.90
2018-05-27T00:21:30.486Z,99.90
2018-05-27T00:23:57.795Z,99.90
2018-05-27T00:26:24.278Z,99.90
2018-05-27T00:28:51.480Z,99.90
2018-05-27T00:31:17.995Z,99.90
2018-05-27T00:33:44.472Z,99.90
2018-05-27T00:36:11.057Z,99.90
2018-05-27T00:38:37.534Z,99.90
2018-05-27T00:41:04.002Z,99.90
2018-05-27T00:43:31.282Z,99.90
2018-05-27T00:45:57.773Z,99.90
2018-05-27T00:48:24.345Z,99.90
2018-05-27T00:50:50.790Z,99.90
2018-05-27T00:53:17.529Z,99.90
2018-05-27T00:55:44.010Z,99.90
2018-05-27T00:58:10.494Z,99.90
2018-05-27T01:00:37.110Z,99.90
2018-05-27T01:03:03.570Z,99.90
2018-05-27T01:05:30.174Z,99.90
2018-05-27T01:07:57.514Z,99.90
2018-05-27T01:10:24.773Z,99.90
2018-05-27T01:12:51.997Z,99.90
2018-05-27T01:15:18.473Z,99.90
2018-05-27T01:17:44.947Z,99.90
2018-05-27T01:20:11.410Z,99.90
2018-05-27T01:22:37.854Z,99.90
2018-05-27T01:25:05.095Z,99.90
2018-05-27T01:27:32.322Z,99.90
2018-05-27T01:29:59.529Z,99.90
2018-05-27T01:32:26.041Z,99.90
2018-05-27T01:34:53.436Z,99.90
2018-05-27T01:37:19.935Z,99.90
2018-05-27T01:39:47.137Z,99.90
2018-05-27T01:42:13.674Z,99.90
2018-05-27T01:44:40.123Z,99.90
2018-05-27T01:47:06.701Z,99.90
2018-05-27T01:49:34.010Z,99.90
2018-05-27T01:52:00.497Z,99.90
2018-05-27T01:54:27.016Z,99.90
2018-05-27T01:56:54.234Z,99.90
2018-05-27T01:59:20.698Z,99.90
2018-05-27T02:01:47.978Z,99.90
2018-05-27T02:04:14.435Z,99.90
2018-05-27T02:06:40.918Z,99.90
2018-05-27T02:09:08.102Z,99.90
2018-05-27T02:11:34.606Z,99.90
2018-05-27T02:14:01.786Z,99.90
2018-05-27T02:16:28.314Z,99.90
2018-05-27T02:18:54.777Z,99.90
2018-05-27T02:21:21.306Z,99.90
2018-05-27T02:23:47.746Z,99.90
2018-05-27T02:26:14.220Z,99.90
2018-05-27T02:28:43.560Z,99.90
2018-05-27T02:31:10.227Z,99.90
2018-05-27T02:33:36.761Z,99.90
2018-05-27T02:36:03.253Z,99.90
2018-05-27T02:38:29.743Z,99.90
2018-05-27T02:40:56.239Z,99.90
2018-05-27T02:43:22.711Z,99.90
2018-05-27T02:45:49.194Z,99.90
2018-05-27T02:48:15.752Z,99.90
2018-05-27T02:50:42.251Z,99.90
2018-05-27T02:53:08.735Z,99.90
2018-05-27T02:55:35.287Z,99.90
2018-05-27T02:58:01.787Z,99.90
2018-05-27T03:00:28.287Z,99.90
2018-05-27T03:02:54.782Z,99.90
2018-05-27T03:05:21.334Z,99.90
2018-05-27T03:07:47.796Z,99.90
2018-05-27T03:10:14.283Z,99.90
2018-05-27T03:12:40.718Z,99.90
2018-05-27T03:15:07.253Z,99.90
2018-05-27T03:17:33.789Z,99.90
2018-05-27T03:20:00.424Z,99.90
2018-05-27T03:22:26.944Z,99.90
2018-05-27T03:24:53.478Z,99.90
2018-05-27T03:27:20.037Z,99.90
2018-05-27T03:29:46.563Z,99.90
2018-05-27T03:32:13.073Z,99.90
2018-05-27T03:34:39.507Z,99.90
2018-05-27T03:37:06.069Z,99.90
2018-05-27T03:39:32.502Z,99.90
2018-05-27T03:41:59.007Z,99.90
2018-05-27T03:44:25.485Z,99.90
2018-05-27T03:46:52.042Z,99.90
2018-05-27T03:49:19.282Z,99.90
2018-05-27T03:51:46.532Z,99.90
2018-05-27T03:54:13.758Z,99.90
2018-05-27T03:56:40.218Z,99.90
2018-05-27T03:59:07.466Z,99.90
2018-05-27T04:01:33.913Z,99.90
2018-05-27T04:04:13.398Z,99.90
2018-05-27T04:06:52.026Z,99.90
2018-05-27T04:09:18.525Z,99.90
2018-05-27T04:11:45.018Z,99.90
2018-05-27T04:14:11.474Z,99.90
2018-05-27T04:16:38.701Z,99.90
2018-05-27T04:19:05.250Z,99.90
2018-05-27T04:21:38.772Z,99.90
2018-05-27T04:24:05.229Z,99.90
2018-05-27T04:26:31.741Z,99.90
2018-05-27T04:28:58.227Z,99.90
2018-05-27T04:31:24.669Z,99.90
2018-05-27T04:33:51.928Z,99.90
2018-05-27T04:36:18.488Z,99.90
2018-05-27T04:38:45.817Z,99.90
2018-05-27T04:41:12.271Z,99.90
2018-05-27T04:43:39.638Z,99.90
2018-05-27T04:46:06.144Z,99.90
2018-05-27T04:48:32.631Z,99.90
2018-05-27T04:50:59.117Z,99.90
2018-05-27T04:53:26.573Z,99.90
2018-05-27T04:55:53.054Z,99.90
2018-05-27T04:58:19.558Z,99.90
2018-05-27T05:00:46.807Z,99.90
2018-05-27T05:03:14.053Z,99.90
2018-05-27T05:05:41.247Z,99.90
2018-05-27T05:08:07.835Z,99.90
2018-05-27T05:10:35.117Z,99.90
2018-05-27T05:13:01.637Z,99.90
2018-05-27T05:15:28.884Z,99.90
2018-05-27T05:17:56.145Z,99.90
2018-05-27T05:20:23.362Z,99.90
2018-05-27T05:22:50.669Z,99.90
2018-05-27T05:25:17.100Z,99.90
2018-05-27T05:27:43.681Z,99.90
2018-05-27T05:30:10.117Z,99.90
2018-05-27T05:32:36.634Z,99.90
2018-05-27T05:35:03.162Z,99.90
2018-05-27T05:37:29.697Z,99.90
2018-05-27T05:39:56.171Z,99.90
2018-05-27T05:42:23.399Z,99.90
2018-05-27T05:44:50.046Z,99.90
2018-05-27T05:47:16.509Z,99.90
2018-05-27T05:49:43.730Z,99.90
2018-05-27T05:52:10.233Z,99.90
2018-05-27T05:54:36.764Z,99.90
2018-05-27T05:57:03.260Z,99.90
2018-05-27T05:59:30.521Z,99.90
2018-05-27T06:01:57.049Z,99.90
2018-05-27T06:04:23.591Z,99.90
2018-05-27T06:06:50.096Z,99.90
2018-05-27T06:09:16.581Z,99.90
2018-05-27T06:11:43.160Z,99.90
2018-05-27T06:14:09.622Z,99.90
2018-05-27T06:16:36.929Z,99.90
2018-05-27T06:19:03.444Z,99.90
2018-05-27T06:21:29.943Z,99.90
2018-05-27T06:23:57.267Z,99.90
2018-05-27T06:26:23.781Z,99.90
2018-05-27T06:28:50.364Z,99.90
2018-05-27T06:31:17.740Z,99.90
2018-05-27T06:33:44.288Z,99.90
2018-05-27T06:36:10.769Z,99.90
2018-05-27T06:38:37.386Z,99.90
2018-05-27T06:41:03.878Z,99.90
2018-05-27T06:43:30.389Z,99.90
2018-05-27T06:45:57.597Z,99.90
2018-05-27T06:48:24.109Z,99.90
2018-05-27T06:50:50.589Z,99.90
2018-05-27T06:53:17.156Z,99.90
2018-05-27T06:55:43.599Z,99.90
2018-05-27T06:58:10.062Z,99.90
2018-05-27T07:00:36.498Z,99.90
2018-05-27T07:03:03.031Z,99.90
2018-05-27T07:05:29.545Z,99.90
2018-05-27T07:07:56.015Z,99.90
2018-05-27T07:10:22.496Z,99.90
2018-05-27T07:12:49.691Z,99.90
2018-05-27T07:15:16.186Z,99.90
2018-05-27T07:17:42.780Z,99.90
2018-05-27T07:20:09.307Z,99.90
2018-05-27T07:22:35.811Z,99.90
2018-05-27T07:25:02.334Z,99.90
2018-05-27T07:27:28.810Z,99.90
2018-05-27T07:29:55.283Z,99.90
2018-05-27T07:32:22.481Z,99.90
2018-05-27T07:34:49.005Z,99.90
2018-05-27T07:37:15.459Z,99.90
2018-05-27T07:39:41.912Z,99.90
2018-05-27T07:42:08.378Z,99.90
2018-05-27T07:44:35.555Z,99.90
2018-05-27T07:47:02.110Z,99.90
2018-05-27T07:49:28.584Z,99.90
2018-05-27T07:51:55.822Z,99.90
2018-05-27T07:54:22.270Z,99.90
2018-05-27T07:56:49.470Z,99.90
2018-05-27T07:59:15.930Z,99.90
2018-05-27T08:01:43.232Z,99.90
2018-05-27T08:04:09.774Z,99.90
2018-05-27T08:06:36.399Z,99.90
2018-05-27T08:09:02.966Z,99.90
2018-05-27T08:11:29.394Z,99.90
2018-05-27T08:13:55.939Z,99.90
2018-05-27T08:16:22.400Z,99.90
2018-05-27T08:18:48.949Z,99.90
2018-05-27T08:21:16.307Z,99.90
2018-05-27T08:23:43.493Z,99.90
2018-05-27T08:26:09.941Z,99.90
2018-05-27T08:28:36.550Z,99.90
2018-05-27T08:31:03.001Z,99.90
2018-05-27T08:33:29.538Z,99.90
2018-05-27T08:35:55.962Z,99.90
2018-05-27T08:38:22.430Z,99.90
2018-05-27T08:40:48.917Z,99.90
2018-05-27T08:43:15.647Z,99.90
2018-05-27T08:45:42.934Z,99.90
2018-05-27T08:48:09.356Z,99.90
2018-05-27T08:50:35.846Z,99.90
2018-05-27T08:53:02.311Z,99.90
2018-05-27T08:55:28.754Z,99.90
2018-05-27T08:57:55.277Z,99.90
2018-05-27T09:00:21.795Z,99.90
2018-05-27T09:02:48.975Z,99.90
2018-05-27T09:05:15.533Z,99.90
2018-05-27T09:07:42.026Z,99.90
2018-05-27T09:10:09.284Z,99.90
2018-05-27T09:12:35.807Z,99.90
2018-05-27T09:15:02.451Z,99.90
2018-05-27T09:17:28.946Z,99.90
2018-05-27T09:22:52.086Z,99.90
2018-05-27T09:25:18.608Z,99.90
2018-05-27T09:27:45.149Z,99.90
2018-05-27T09:30:11.877Z,99.90
2018-05-27T09:32:38.494Z,99.90
2018-05-27T09:35:05.722Z,99.90
2018-05-27T09:37:32.268Z,99.90
2018-05-27T09:39:58.863Z,99.90
2018-05-27T09:42:25.352Z,99.90
2018-05-27T09:44:52.567Z,99.90
2018-05-27T09:47:19.034Z,99.90
2018-05-27T09:49:46.335Z,99.90
2018-05-27T09:52:12.863Z,99.90
2018-05-27T09:54:39.346Z,99.90
2018-05-27T09:57:05.819Z,99.90
2018-05-27T09:59:32.285Z,99.90
2018-05-27T10:01:58.738Z,99.90
2018-05-27T10:04:25.342Z,99.90
2018-05-27T10:06:51.853Z,99.90
2018-05-27T10:09:18.783Z,99.90
2018-05-27T10:11:46.276Z,99.90
2018-05-27T10:14:12.750Z,99.90
2018-05-27T10:16:39.209Z,99.90
2018-05-27T10:19:06.568Z,99.90
2018-05-27T10:21:33.771Z,99.90
2018-05-27T10:24:00.279Z,99.90
2018-05-27T10:26:26.850Z,99.90
2018-05-27T10:28:53.353Z,99.90
2018-05-27T10:31:19.849Z,99.90
2018-05-27T10:33:47.193Z,99.90
2018-05-27T10:36:13.630Z,99.90
2018-05-27T10:38:40.821Z,99.90
2018-05-27T10:41:07.345Z,99.90
2018-05-27T10:43:33.817Z,99.90
2018-05-27T10:46:00.382Z,99.90
2018-05-27T10:48:27.587Z,99.90
2018-05-27T10:50:54.142Z,99.90
2018-05-27T10:53:20.614Z,99.90
2018-05-27T10:58:45.023Z,99.90
2018-05-27T11:01:12.317Z,99.90
2018-05-27T11:03:38.745Z,99.90
2018-05-27T11:06:07.200Z,99.90
2018-05-27T11:08:33.686Z,99.90
2018-05-27T11:11:00.245Z,99.90
2018-05-27T11:13:27.522Z,99.90
2018-05-27T11:15:53.970Z,99.90
2018-05-27T11:18:20.480Z,99.90
2018-05-27T11:20:47.850Z,99.90
2018-05-27T11:23:14.342Z,99.90
2018-05-27T11:25:40.868Z,99.90
2018-05-27T11:28:07.474Z,99.90
2018-05-27T11:30:33.958Z,99.90
2018-05-27T11:33:00.432Z,99.90
2018-05-27T11:35:26.949Z,99.90
2018-05-27T11:37:53.599Z,99.90
2018-05-27T11:40:20.077Z,99.90
2018-05-27T11:42:46.538Z,96.90
2018-05-27T11:45:13.722Z,98.40
2018-05-27T11:47:40.156Z,98.40
2018-05-27T11:50:06.623Z,97.60
2018-05-27T11:52:33.072Z,96.60
2018-05-27T11:54:59.560Z,94.90
2018-05-27T11:57:26.017Z,93.80
2018-05-27T11:59:52.690Z,95.70
2018-05-27T12:02:19.965Z,92.50
2018-05-27T12:04:46.407Z,92.60
2018-05-27T12:07:13.003Z,91.20
2018-05-27T12:09:39.547Z,91.70
2018-05-27T12:12:05.981Z,90.30
2018-05-27T12:14:33.192Z,88.40
2018-05-27T12:16:59.709Z,88.30
2018-05-27T12:19:26.264Z,92.40
2018-05-27T12:21:52.794Z,90.30
2018-05-27T12:24:19.324Z,91.50
2018-05-27T12:26:45.843Z,90.20
2018-05-27T12:29:12.368Z,87.30
2018-05-27T12:31:38.813Z,86.80
2018-05-27T12:34:05.298Z,82.70
2018-05-27T12:36:31.769Z,82.20
2018-05-27T12:38:58.203Z,79.70
2018-05-27T12:41:24.653Z,70.80
2018-05-27T12:43:51.176Z,65.80
2018-05-27T12:46:17.722Z,61.40
2018-05-27T12:48:44.297Z,62.70
2018-05-27T12:51:10.769Z,60.10
2018-05-27T12:53:37.301Z,59.60
2018-05-27T12:56:04.535Z,58.30
2018-05-27T12:58:31.858Z,58.60
2018-05-27T13:00:58.349Z,58.60
2018-05-27T13:03:24.914Z,57.60
2018-05-27T13:05:51.432Z,55.30
2018-05-27T13:08:24.967Z,53.50
2018-05-27T13:10:51.399Z,55.10
2018-05-27T13:13:18.018Z,54.50
2018-05-27T13:15:44.506Z,54.60
2018-05-27T13:18:11.766Z,54.30
2018-05-27T13:20:38.979Z,55.30
2018-05-27T13:23:05.469Z,55.20
2018-05-27T13:25:31.942Z,53.60
2018-05-27T13:27:58.412Z,53.90
2018-05-27T13:30:25.637Z,51.70
2018-05-27T13:32:52.090Z,51.70
2018-05-27T13:35:19.359Z,53.20
2018-05-27T13:37:46.763Z,55.80
2018-05-27T13:40:13.383Z,55.60
2018-05-27T13:42:39.809Z,53.60
2018-05-27T13:45:06.348Z,53.20
2018-05-27T13:47:32.729Z,56.30
2018-05-27T13:49:59.174Z,56.40
2018-05-27T13:52:25.710Z,58.30
2018-05-27T13:54:53.051Z,58.20
2018-05-27T13:57:19.549Z,58.20
2018-05-27T13:59:45.997Z,59.00
2018-05-27T14:02:12.482Z,59.40
2018-05-27T14:04:38.947Z,60.20
2018-05-27T14:10:02.122Z,55.80
2018-05-27T14:12:28.709Z,55.70
2018-05-27T14:14:55.895Z,57.70
2018-05-27T14:17:22.480Z,57.60
2018-05-27T14:19:48.958Z,57.80
2018-05-27T14:22:15.503Z,59.70
2018-05-27T14:24:42.058Z,60.50
2018-05-27T14:27:08.508Z,61.00
2018-05-27T14:29:35.052Z,64.30
2018-05-27T14:32:01.522Z,65.90
2018-05-27T14:34:28.023Z,65.00
2018-05-27T14:36:54.492Z,67.70
2018-05-27T14:39:21.040Z,67.40
2018-05-27T14:41:47.532Z,69.30
2018-05-27T14:44:14.140Z,71.30
2018-05-27T14:46:40.583Z,79.20
2018-05-27T14:49:07.334Z,83.60
2018-05-27T14:51:33.759Z,88.20
2018-05-27T14:54:00.233Z,90.00
2018-05-27T14:56:26.738Z,90.20
2018-05-27T14:58:53.236Z,89.00
2018-05-27T15:01:19.765Z,90.40
2018-05-27T15:03:46.291Z,90.40
2018-05-27T15:06:12.970Z,90.70
2018-05-27T15:08:39.421Z,91.40
2018-05-27T15:11:07.780Z,92.80
2018-05-27T15:13:34.231Z,92.70
2018-05-27T15:16:00.747Z,94.80
2018-05-27T15:18:27.341Z,94.30
2018-05-27T15:20:54.526Z,95.90
2018-05-27T15:23:21.038Z,95.80
2018-05-27T15:25:47.498Z,95.60
2018-05-27T15:28:14.014Z,94.50
2018-05-27T15:30:40.490Z,94.80
2018-05-27T15:33:07.711Z,95.50
2018-05-27T15:35:34.322Z,95.50
2018-05-27T15:38:00.799Z,94.60
2018-05-27T15:40:27.346Z,93.80
2018-05-27T15:42:53.802Z,94.30
2018-05-27T15:45:20.398Z,94.90
2018-05-27T15:47:46.874Z,95.00
2018-05-27T15:50:13.375Z,97.30
2018-05-27T15:52:39.983Z,96.30
2018-05-27T15:55:06.455Z,97.90
2018-05-27T15:57:32.968Z,95.80
2018-05-27T15:59:59.443Z,97.70
2018-05-27T16:02:26.685Z,92.80
2018-05-27T16:04:53.941Z,93.90
2018-05-27T16:07:21.134Z,91.80
2018-05-27T16:09:47.643Z,91.70
2018-05-27T16:12:14.226Z,95.30
2018-05-27T16:14:40.722Z,91.70
2018-05-27T16:17:07.287Z,91.30
2018-05-27T16:19:33.742Z,90.00
2018-05-27T16:22:00.350Z,90.10
2018-05-27T16:24:27.009Z,91.40
2018-05-27T16:26:53.981Z,93.50
2018-05-27T16:29:21.327Z,93.90
2018-05-27T16:31:48.018Z,93.90
2018-05-27T16:34:15.388Z,94.30
2018-05-27T16:36:41.897Z,94.70
2018-05-27T16:39:09.731Z,95.40
2018-05-27T16:41:36.945Z,95.60
2018-05-27T16:44:03.541Z,95.60
2018-05-27T16:46:30.980Z,97.30
2018-05-27T16:48:57.525Z,97.20
2018-05-27T16:51:23.992Z,97.40
2018-05-27T16:56:46.749Z,97.10
2018-05-27T16:59:13.232Z,98.20
2018-05-27T17:01:40.458Z,96.10
2018-05-27T17:04:07.073Z,96.20
2018-05-27T17:09:30.090Z,98.00
2018-05-27T17:11:56.703Z,98.00
2018-05-27T17:14:23.217Z,99.20
2018-05-27T17:16:49.810Z,98.80
2018-05-27T17:19:16.481Z,97.80
2018-05-27T17:21:43.116Z,97.10
2018-05-27T17:24:09.700Z,97.30
2018-05-27T17:26:36.251Z,98.40
2018-05-27T17:31:58.638Z,98.50
2018-05-27T17:34:25.243Z,98.40
2018-05-27T17:36:54.904Z,98.90
2018-05-27T17:39:25.267Z,98.90
2018-05-27T17:41:52.527Z,99.20
2018-05-27T17:44:19.146Z,99.20
2018-05-27T17:46:45.641Z,99.30
2018-05-27T17:49:12.513Z,97.10
2018-05-27T17:51:39.113Z,97.20
2018-05-27T17:54:05.608Z,97.20
2018-05-27T17:56:32.958Z,98.30
2018-05-27T17:59:00.568Z,98.30
2018-05-27T18:01:27.069Z,98.30
2018-05-27T18:03:54.300Z,98.60
2018-05-27T18:06:20.933Z,98.60
2018-05-27T18:08:47.451Z,98.90
2018-05-27T18:11:13.978Z,98.80
2018-05-27T18:13:40.606Z,99.10
2018-05-27T18:16:07.108Z,99.60
2018-05-27T18:18:34.506Z,99.90
2018-05-27T18:21:00.997Z,99.90
2018-05-27T18:23:27.671Z,99.90
2018-05-27T18:25:54.431Z,99.90
2018-05-27T18:28:21.017Z,99.90
2018-05-27T18:30:47.741Z,99.90
2018-05-27T18:33:15.105Z,99.90
2018-05-27T18:35:42.527Z,99.90
2018-05-27T18:38:09.043Z,99.90
2018-05-27T18:40:35.593Z,99.90
2018-05-27T18:43:02.317Z,99.90
2018-05-27T18:45:29.267Z,99.90
2018-05-27T18:47:56.188Z,99.90
2018-05-27T18:50:22.874Z,99.90
2018-05-27T18:52:50.294Z,99.90
2018-05-27T18:55:17.886Z,99.90
2018-05-27T18:57:44.485Z,99.90
2018-05-27T19:00:11.058Z,99.90
2018-05-27T19:02:37.749Z,99.90
2018-05-27T19:05:05.379Z,99.90
2018-05-27T19:07:32.837Z,99.90
2018-05-27T19:10:00.191Z,99.90
2018-05-27T19:12:27.750Z,99.90
2018-05-27T19:14:54.323Z,99.90
2018-05-27T19:17:21.159Z,99.90
2018-05-27T19:19:47.826Z,99.90
2018-05-27T19:22:14.358Z,99.90
2018-05-27T19:24:40.985Z,99.90
2018-05-27T19:27:07.480Z,99.90
2018-05-27T19:29:34.788Z,99.90
2018-05-27T19:32:01.506Z,99.90
2018-05-27T19:34:28.046Z,99.90
2018-05-27T19:36:54.746Z,99.90
2018-05-27T19:39:22.304Z,99.90
2018-05-27T19:41:48.843Z,99.90
2018-05-27T19:44:16.270Z,99.90
2018-05-27T19:46:42.804Z,99.90
2018-05-27T19:49:10.769Z,99.90
2018-05-27T19:51:37.591Z,99.90
2018-05-27T19:54:04.259Z,99.90
2018-05-27T19:56:31.053Z,99.90
2018-05-27T19:58:57.755Z,99.90
2018-05-27T20:01:25.186Z,99.90
2018-05-27T20:03:51.785Z,99.90
2018-05-27T20:06:18.330Z,99.90
2018-05-27T20:08:45.115Z,99.90
2018-05-27T20:11:11.634Z,99.90
2018-05-27T20:13:38.101Z,99.90
2018-05-27T20:16:05.395Z,99.90
2018-05-27T20:18:31.946Z,99.90
2018-05-27T20:20:58.552Z,99.90
2018-05-27T20:23:25.041Z,99.90
2018-05-27T20:25:51.559Z,99.90
2018-05-27T20:28:18.101Z,99.90
2018-05-27T20:30:44.638Z,99.90
2018-05-27T20:33:11.281Z,99.90
2018-05-27T20:35:37.841Z,99.90
2018-05-27T20:38:05.193Z,99.90
2018-05-27T20:40:32.536Z,99.90
2018-05-27T20:42:59.811Z,99.90
2018-05-27T20:45:26.332Z,99.90
2018-05-27T20:47:53.698Z,99.90
2018-05-27T20:50:20.226Z,99.90
2018-05-27T20:52:47.559Z,99.90
2018-05-27T20:55:14.376Z,99.90
2018-05-27T20:57:40.867Z,99.90
2018-05-27T21:00:07.394Z,99.90
2018-05-27T21:02:34.798Z,99.90
2018-05-27T21:05:01.310Z,99.90
2018-05-27T21:07:27.971Z,99.90
2018-05-27T21:09:54.486Z,99.90
2018-05-27T21:12:21.010Z,99.90
2018-05-27T21:14:47.527Z,99.90
2018-05-27T21:17:14.969Z,99.90
2018-05-27T21:19:41.519Z,99.90
2018-05-27T21:22:08.803Z,99.90
2018-05-27T21:24:35.367Z,99.90
2018-05-27T21:27:01.885Z,99.90
2018-05-27T21:29:28.452Z,99.90
2018-05-27T21:31:54.949Z,99.90
2018-05-27T21:34:21.573Z,99.90
2018-05-27T21:36:48.080Z,99.90
2018-05-27T21:39:15.324Z,99.90
2018-05-27T21:41:42.613Z,99.90
2018-05-27T21:44:09.200Z,99.90
2018-05-27T21:46:35.938Z,99.90
2018-05-27T21:49:02.445Z,99.90
2018-05-27T21:51:28.942Z,99.90
2018-05-27T21:53:55.446Z,99.90
2018-05-27T21:56:22.152Z,99.90
2018-05-27T21:58:48.768Z,99.90
2018-05-27T22:01:15.252Z,99.90
2018-05-27T22:03:42.547Z,99.90
2018-05-27T22:06:09.212Z,99.90
2018-05-27T22:08:36.067Z,99.90
2018-05-27T22:11:02.556Z,99.90
2018-05-27T22:13:29.226Z,99.90
2018-05-27T22:15:55.699Z,99.90
2018-05-27T22:18:22.320Z,99.90
2018-05-27T22:20:48.798Z,99.90
2018-05-27T22:23:15.409Z,99.90
2018-05-27T22:25:41.870Z,99.90
2018-05-27T22:28:08.376Z,99.90
2018-05-27T22:30:35.657Z,99.90
2018-05-27T22:33:02.162Z,99.90
2018-05-27T22:35:29.409Z,99.90
2018-05-27T22:37:55.923Z,99.90
2018-05-27T22:40:22.459Z,99.90
2018-05-27T22:42:48.999Z,99.90
2018-05-27T22:45:15.526Z,99.90
2018-05-27T22:47:42.088Z,99.90
2018-05-27T22:50:08.600Z,99.90
2018-05-27T22:52:35.070Z,99.90
2018-05-27T22:55:02.342Z,99.90
2018-05-27T22:57:28.871Z,99.90
2018-05-27T22:59:55.471Z,99.90
2018-05-27T23:02:21.941Z,99.90
2018-05-27T23:04:49.153Z,99.90
2018-05-27T23:07:15.722Z,99.90
2018-05-27T23:09:43.002Z,99.90
2018-05-27T23:12:10.041Z,99.90
2018-05-27T23:14:36.524Z,99.90
2018-05-27T23:17:03.102Z,99.90
2018-05-27T23:19:29.601Z,99.90
2018-05-27T23:21:56.283Z,99.90
2018-05-27T23:24:22.807Z,99.90
2018-05-27T23:26:49.368Z,99.90
2018-05-27T23:29:15.869Z,99.90
2018-05-27T23:31:43.217Z,99.90
2018-05-27T23:34:10.447Z,99.90
2018-05-27T23:36:37.231Z,99.90
2018-05-27T23:39:03.782Z,99.90
2018-05-27T23:41:30.292Z,99.90
2018-05-27T23:43:56.889Z,99.90
2018-05-27T23:46:23.375Z,99.90
2018-05-27T23:48:49.986Z,99.90
2018-05-27T23:51:17.266Z,99.90
2018-05-27T23:53:43.813Z,99.90
2018-05-27T23:56:10.452Z,99.90
2018-05-27T23:58:37.026Z,99.90
